sensor_id;sensor_type;location;lat;lon;timestamp;P1;durP1;ratioP1;P2;durP2;ratioP2
50219;SDS011;36110;51.536;7.562;2022-11-21T00:01:31;7.00;;;5.97;;
50219;SDS011;36110;51.536;7.562;2022-11-21T00:03:57;9.98;;;8.63;;
50219;SDS011;36110;51.536;7.562;2022-11-21T00:06:22;5.45;;;4.70;;
50219;SDS011;36110;51.536;7.562;2022-11-21T00:08:47;19.02;;;15.45;;
50219;SDS011;36110;51.536;7.562;2022-11-21T00:11:13;6.80;;;5.43;;
50219;SDS011;36110;51.536;7.562;2022-11-21T00:13:38;5.20;;;4.70;;
50219;SDS011;36110;51.536;7.562;2022-11-21T00:16:04;8.13;;;6.47;;
50219;SDS011;36110;51.536;7.562;2022-11-21T00:18:31;5.32;;;4.65;;
50219;SDS011;36110;51.536;7.562;2022-11-21T00:20:57;17.23;;;13.57;;
50219;SDS011;36110;51.536;7.562;2022-11-21T00:23:27;17.73;;;12.63;;
50219;SDS011;36110;51.536;7.562;2022-11-21T00:25:53;5.90;;;4.90;;
50219;SDS011;36110;51.536;7.562;2022-11-21T00:28:18;8.45;;;6.55;;
50219;SDS011;36110;51.536;7.562;2022-11-21T00:30:43;6.00;;;5.22;;
50219;SDS011;36110;51.536;7.562;2022-11-21T00:33:09;6.82;;;4.85;;
50219;SDS011;36110;51.536;7.562;2022-11-21T00:35:34;5.20;;;4.40;;
50219;SDS011;36110;51.536;7.562;2022-11-21T00:37:59;23.40;;;16.73;;
50219;SDS011;36110;51.536;7.562;2022-11-21T00:40:25;5.25;;;4.75;;
50219;SDS011;36110;51.536;7.562;2022-11-21T00:42:50;6.38;;;4.75;;
50219;SDS011;36110;51.536;7.562;2022-11-21T00:45:15;5.25;;;4.57;;
50219;SDS011;36110;51.536;7.562;2022-11-21T00:47:40;5.97;;;4.80;;
50219;SDS011;36110;51.536;7.562;2022-11-21T00:50:06;5.80;;;4.93;;
50219;SDS011;36110;51.536;7.562;2022-11-21T00:52:31;5.60;;;4.63;;
50219;SDS011;36110;51.536;7.562;2022-11-21T00:54:57;5.72;;;4.53;;
50219;SDS011;36110;51.536;7.562;2022-11-21T00:57:22;5.85;;;4.60;;
50219;SDS011;36110;51.536;7.562;2022-11-21T00:59:47;6.15;;;5.10;;
50219;SDS011;36110;51.536;7.562;2022-11-21T01:02:13;5.25;;;4.50;;
50219;SDS011;36110;51.536;7.562;2022-11-21T01:04:38;5.03;;;4.40;;
50219;SDS011;36110;51.536;7.562;2022-11-21T01:07:03;7.28;;;5.90;;
50219;SDS011;36110;51.536;7.562;2022-11-21T01:09:28;4.82;;;4.40;;
50219;SDS011;36110;51.536;7.562;2022-11-21T01:11:54;5.43;;;4.90;;
50219;SDS011;36110;51.536;7.562;2022-11-21T01:14:20;8.57;;;6.32;;
50219;SDS011;36110;51.536;7.562;2022-11-21T01:16:45;6.43;;;5.25;;
50219;SDS011;36110;51.536;7.562;2022-11-21T01:19:10;4.90;;;4.40;;
50219;SDS011;36110;51.536;7.562;2022-11-21T01:21:36;4.63;;;4.13;;
50219;SDS011;36110;51.536;7.562;2022-11-21T01:24:01;4.90;;;4.40;;
50219;SDS011;36110;51.536;7.562;2022-11-21T01:26:28;5.20;;;4.10;;
50219;SDS011;36110;51.536;7.562;2022-11-21T01:28:54;4.70;;;4.20;;
50219;SDS011;36110;51.536;7.562;2022-11-21T01:31:23;5.03;;;4.47;;
50219;SDS011;36110;51.536;7.562;2022-11-21T01:33:50;5.15;;;4.55;;
50219;SDS011;36110;51.536;7.562;2022-11-21T01:38:45;4.88;;;4.35;;
50219;SDS011;36110;51.536;7.562;2022-11-21T01:41:13;6.45;;;4.15;;
50219;SDS011;36110;51.536;7.562;2022-11-21T01:43:40;4.65;;;4.10;;
50219;SDS011;36110;51.536;7.562;2022-11-21T01:48:45;4.60;;;4.15;;
50219;SDS011;36110;51.536;7.562;2022-11-21T01:51:23;4.40;;;4.00;;
50219;SDS011;36110;51.536;7.562;2022-11-21T01:53:54;5.07;;;4.50;;
50219;SDS011;36110;51.536;7.562;2022-11-21T01:56:22;4.97;;;4.43;;
50219;SDS011;36110;51.536;7.562;2022-11-21T01:58:48;4.47;;;4.07;;
50219;SDS011;36110;51.536;7.562;2022-11-21T02:01:13;3.95;;;3.63;;
50219;SDS011;36110;51.536;7.562;2022-11-21T02:03:39;5.30;;;4.20;;
50219;SDS011;36110;51.536;7.562;2022-11-21T02:06:09;4.40;;;3.90;;
50219;SDS011;36110;51.536;7.562;2022-11-21T02:08:35;4.63;;;4.13;;
50219;SDS011;36110;51.536;7.562;2022-11-21T02:13:38;4.22;;;3.80;;
50219;SDS011;36110;51.536;7.562;2022-11-21T02:16:04;4.35;;;3.90;;
50219;SDS011;36110;51.536;7.562;2022-11-21T02:18:30;4.20;;;3.80;;
50219;SDS011;36110;51.536;7.562;2022-11-21T02:20:58;4.05;;;3.60;;
50219;SDS011;36110;51.536;7.562;2022-11-21T02:23:31;4.13;;;3.70;;
50219;SDS011;36110;51.536;7.562;2022-11-21T02:26:00;4.18;;;3.78;;
50219;SDS011;36110;51.536;7.562;2022-11-21T02:28:25;4.28;;;3.88;;
50219;SDS011;36110;51.536;7.562;2022-11-21T02:30:51;4.15;;;3.75;;
50219;SDS011;36110;51.536;7.562;2022-11-21T02:33:17;4.20;;;3.78;;
50219;SDS011;36110;51.536;7.562;2022-11-21T02:35:42;3.90;;;3.60;;
50219;SDS011;36110;51.536;7.562;2022-11-21T02:38:21;4.25;;;3.85;;
50219;SDS011;36110;51.536;7.562;2022-11-21T02:41:00;4.28;;;3.88;;
50219;SDS011;36110;51.536;7.562;2022-11-21T02:43:35;3.92;;;3.53;;
50219;SDS011;36110;51.536;7.562;2022-11-21T02:46:04;4.20;;;3.80;;
50219;SDS011;36110;51.536;7.562;2022-11-21T02:48:29;4.20;;;3.80;;
50219;SDS011;36110;51.536;7.562;2022-11-21T02:50:54;4.35;;;3.88;;
50219;SDS011;36110;51.536;7.562;2022-11-21T02:53:19;11.40;;;9.38;;
50219;SDS011;36110;51.536;7.562;2022-11-21T02:55:45;4.50;;;3.95;;
50219;SDS011;36110;51.536;7.562;2022-11-21T02:58:10;4.80;;;4.03;;
50219;SDS011;36110;51.536;7.562;2022-11-21T03:00:37;3.90;;;3.50;;
50219;SDS011;36110;51.536;7.562;2022-11-21T03:03:03;4.05;;;3.65;;
50219;SDS011;36110;51.536;7.562;2022-11-21T03:05:28;8.30;;;5.82;;
50219;SDS011;36110;51.536;7.562;2022-11-21T03:07:53;4.55;;;4.05;;
50219;SDS011;36110;51.536;7.562;2022-11-21T03:10:19;4.50;;;4.03;;
50219;SDS011;36110;51.536;7.562;2022-11-21T03:12:44;4.88;;;4.22;;
50219;SDS011;36110;51.536;7.562;2022-11-21T03:15:11;21.92;;;16.98;;
50219;SDS011;36110;51.536;7.562;2022-11-21T03:17:37;5.30;;;4.50;;
50219;SDS011;36110;51.536;7.562;2022-11-21T03:20:03;4.32;;;3.92;;
50219;SDS011;36110;51.536;7.562;2022-11-21T03:22:29;4.22;;;3.80;;
50219;SDS011;36110;51.536;7.562;2022-11-21T03:24:54;3.85;;;3.45;;
50219;SDS011;36110;51.536;7.562;2022-11-21T03:27:20;9.60;;;7.65;;
50219;SDS011;36110;51.536;7.562;2022-11-21T03:29:45;4.00;;;3.60;;
50219;SDS011;36110;51.536;7.562;2022-11-21T03:32:10;5.55;;;5.00;;
50219;SDS011;36110;51.536;7.562;2022-11-21T03:34:36;4.82;;;4.32;;
50219;SDS011;36110;51.536;7.562;2022-11-21T03:37:01;5.90;;;5.07;;
50219;SDS011;36110;51.536;7.562;2022-11-21T03:39:28;4.20;;;3.80;;
50219;SDS011;36110;51.536;7.562;2022-11-21T03:41:53;18.17;;;13.43;;
50219;SDS011;36110;51.536;7.562;2022-11-21T03:44:18;4.68;;;4.28;;
50219;SDS011;36110;51.536;7.562;2022-11-21T03:46:44;3.95;;;3.55;;
50219;SDS011;36110;51.536;7.562;2022-11-21T03:49:10;4.25;;;3.85;;
50219;SDS011;36110;51.536;7.562;2022-11-21T03:51:36;3.80;;;3.40;;
50219;SDS011;36110;51.536;7.562;2022-11-21T03:54:02;4.35;;;3.90;;
50219;SDS011;36110;51.536;7.562;2022-11-21T03:56:27;6.63;;;5.68;;
50219;SDS011;36110;51.536;7.562;2022-11-21T03:58:53;4.18;;;3.78;;
50219;SDS011;36110;51.536;7.562;2022-11-21T04:01:18;20.50;;;14.40;;
50219;SDS011;36110;51.536;7.562;2022-11-21T04:03:44;4.03;;;3.63;;
50219;SDS011;36110;51.536;7.562;2022-11-21T04:06:11;4.22;;;3.83;;
50219;SDS011;36110;51.536;7.562;2022-11-21T04:08:37;4.15;;;3.60;;
50219;SDS011;36110;51.536;7.562;2022-11-21T04:11:02;3.80;;;3.50;;
50219;SDS011;36110;51.536;7.562;2022-11-21T04:13:28;4.28;;;3.85;;
50219;SDS011;36110;51.536;7.562;2022-11-21T04:15:53;4.28;;;3.88;;
50219;SDS011;36110;51.536;7.562;2022-11-21T04:18:18;4.47;;;4.07;;
50219;SDS011;36110;51.536;7.562;2022-11-21T04:20:44;4.00;;;3.60;;
50219;SDS011;36110;51.536;7.562;2022-11-21T04:23:09;3.88;;;3.47;;
50219;SDS011;36110;51.536;7.562;2022-11-21T04:25:34;5.50;;;4.65;;
50219;SDS011;36110;51.536;7.562;2022-11-21T04:28:00;3.95;;;3.60;;
50219;SDS011;36110;51.536;7.562;2022-11-21T04:30:27;3.85;;;3.55;;
50219;SDS011;36110;51.536;7.562;2022-11-21T04:32:53;4.38;;;3.60;;
50219;SDS011;36110;51.536;7.562;2022-11-21T04:35:20;3.95;;;3.55;;
50219;SDS011;36110;51.536;7.562;2022-11-21T04:37:46;3.83;;;3.42;;
50219;SDS011;36110;51.536;7.562;2022-11-21T04:40:11;4.22;;;3.67;;
50219;SDS011;36110;51.536;7.562;2022-11-21T04:42:41;4.05;;;3.60;;
50219;SDS011;36110;51.536;7.562;2022-11-21T04:45:07;4.53;;;3.75;;
50219;SDS011;36110;51.536;7.562;2022-11-21T04:47:38;4.05;;;3.65;;
50219;SDS011;36110;51.536;7.562;2022-11-21T04:50:05;4.03;;;3.63;;
50219;SDS011;36110;51.536;7.562;2022-11-21T04:52:31;9.45;;;7.60;;
50219;SDS011;36110;51.536;7.562;2022-11-21T04:54:56;15.88;;;12.27;;
50219;SDS011;36110;51.536;7.562;2022-11-21T04:57:22;4.25;;;3.85;;
50219;SDS011;36110;51.536;7.562;2022-11-21T04:59:47;4.43;;;3.63;;
50219;SDS011;36110;51.536;7.562;2022-11-21T05:02:12;4.38;;;3.50;;
50219;SDS011;36110;51.536;7.562;2022-11-21T05:04:38;3.60;;;3.30;;
50219;SDS011;36110;51.536;7.562;2022-11-21T05:07:03;4.22;;;3.53;;
50219;SDS011;36110;51.536;7.562;2022-11-21T05:09:29;4.60;;;3.97;;
50219;SDS011;36110;51.536;7.562;2022-11-21T05:11:54;6.57;;;4.97;;
50219;SDS011;36110;51.536;7.562;2022-11-21T05:14:38;4.07;;;3.63;;
50219;SDS011;36110;51.536;7.562;2022-11-21T05:17:03;22.83;;;16.73;;
50219;SDS011;36110;51.536;7.562;2022-11-21T05:19:28;14.55;;;9.98;;
50219;SDS011;36110;51.536;7.562;2022-11-21T05:21:54;28.65;;;20.40;;
50219;SDS011;36110;51.536;7.562;2022-11-21T05:24:20;4.22;;;3.83;;
50219;SDS011;36110;51.536;7.562;2022-11-21T05:26:45;4.85;;;4.43;;
50219;SDS011;36110;51.536;7.562;2022-11-21T05:29:12;4.25;;;3.75;;
50219;SDS011;36110;51.536;7.562;2022-11-21T05:31:37;4.07;;;3.67;;
50219;SDS011;36110;51.536;7.562;2022-11-21T05:34:03;4.07;;;3.65;;
50219;SDS011;36110;51.536;7.562;2022-11-21T05:36:28;4.63;;;3.83;;
50219;SDS011;36110;51.536;7.562;2022-11-21T05:38:53;5.55;;;4.72;;
50219;SDS011;36110;51.536;7.562;2022-11-21T05:41:19;12.02;;;9.07;;
50219;SDS011;36110;51.536;7.562;2022-11-21T05:43:45;13.80;;;9.60;;
50219;SDS011;36110;51.536;7.562;2022-11-21T05:46:15;15.40;;;10.13;;
50219;SDS011;36110;51.536;7.562;2022-11-21T05:48:41;13.05;;;9.98;;
50219;SDS011;36110;51.536;7.562;2022-11-21T05:51:06;13.63;;;9.73;;
50219;SDS011;36110;51.536;7.562;2022-11-21T05:53:32;14.63;;;10.65;;
50219;SDS011;36110;51.536;7.562;2022-11-21T05:56:09;12.20;;;9.07;;
50219;SDS011;36110;51.536;7.562;2022-11-21T05:58:36;15.23;;;10.07;;
50219;SDS011;36110;51.536;7.562;2022-11-21T06:01:02;12.40;;;9.32;;
50219;SDS011;36110;51.536;7.562;2022-11-21T06:03:29;28.35;;;17.83;;
50219;SDS011;36110;51.536;7.562;2022-11-21T06:08:30;13.88;;;9.65;;
50219;SDS011;36110;51.536;7.562;2022-11-21T06:10:58;14.82;;;11.07;;
50219;SDS011;36110;51.536;7.562;2022-11-21T06:13:23;12.65;;;9.20;;
50219;SDS011;36110;51.536;7.562;2022-11-21T06:15:53;13.95;;;9.07;;
50219;SDS011;36110;51.536;7.562;2022-11-21T06:18:22;13.48;;;9.60;;
50219;SDS011;36110;51.536;7.562;2022-11-21T06:20:48;13.00;;;9.23;;
50219;SDS011;36110;51.536;7.562;2022-11-21T06:23:13;33.35;;;20.95;;
50219;SDS011;36110;51.536;7.562;2022-11-21T06:25:39;33.55;;;20.40;;
50219;SDS011;36110;51.536;7.562;2022-11-21T06:28:04;30.63;;;19.13;;
50219;SDS011;36110;51.536;7.562;2022-11-21T06:30:29;34.63;;;21.75;;
50219;SDS011;36110;51.536;7.562;2022-11-21T06:32:55;31.42;;;19.70;;
50219;SDS011;36110;51.536;7.562;2022-11-21T06:35:20;36.17;;;18.88;;
50219;SDS011;36110;51.536;7.562;2022-11-21T06:37:45;28.40;;;18.55;;
50219;SDS011;36110;51.536;7.562;2022-11-21T06:40:11;33.03;;;19.50;;
50219;SDS011;36110;51.536;7.562;2022-11-21T06:42:36;26.60;;;17.30;;
50219;SDS011;36110;51.536;7.562;2022-11-21T06:45:02;27.58;;;18.52;;
50219;SDS011;36110;51.536;7.562;2022-11-21T06:47:27;29.40;;;17.88;;
50219;SDS011;36110;51.536;7.562;2022-11-21T06:49:53;26.95;;;17.48;;
50219;SDS011;36110;51.536;7.562;2022-11-21T06:52:18;29.03;;;18.13;;
50219;SDS011;36110;51.536;7.562;2022-11-21T06:54:43;24.85;;;16.02;;
50219;SDS011;36110;51.536;7.562;2022-11-21T06:57:08;27.00;;;16.20;;
50219;SDS011;36110;51.536;7.562;2022-11-21T06:59:34;25.10;;;16.42;;
50219;SDS011;36110;51.536;7.562;2022-11-21T07:01:59;26.50;;;16.80;;
50219;SDS011;36110;51.536;7.562;2022-11-21T07:04:24;26.08;;;16.88;;
50219;SDS011;36110;51.536;7.562;2022-11-21T07:06:50;24.25;;;15.63;;
50219;SDS011;36110;51.536;7.562;2022-11-21T07:09:15;25.70;;;16.05;;
50219;SDS011;36110;51.536;7.562;2022-11-21T07:11:40;25.38;;;15.65;;
50219;SDS011;36110;51.536;7.562;2022-11-21T07:14:06;26.88;;;16.20;;
50219;SDS011;36110;51.536;7.562;2022-11-21T07:16:32;23.73;;;16.00;;
50219;SDS011;36110;51.536;7.562;2022-11-21T07:18:57;24.98;;;15.75;;
50219;SDS011;36110;51.536;7.562;2022-11-21T07:21:24;21.55;;;15.45;;
50219;SDS011;36110;51.536;7.562;2022-11-21T07:23:49;23.42;;;15.18;;
50219;SDS011;36110;51.536;7.562;2022-11-21T07:26:15;24.10;;;15.45;;
50219;SDS011;36110;51.536;7.562;2022-11-21T07:28:40;23.40;;;15.25;;
50219;SDS011;36110;51.536;7.562;2022-11-21T07:31:08;24.10;;;16.25;;
50219;SDS011;36110;51.536;7.562;2022-11-21T07:33:34;22.63;;;14.38;;
50219;SDS011;36110;51.536;7.562;2022-11-21T07:36:01;22.17;;;15.00;;
50219;SDS011;36110;51.536;7.562;2022-11-21T07:38:26;22.80;;;14.93;;
50219;SDS011;36110;51.536;7.562;2022-11-21T07:40:52;22.08;;;14.48;;
50219;SDS011;36110;51.536;7.562;2022-11-21T07:43:18;20.80;;;13.82;;
50219;SDS011;36110;51.536;7.562;2022-11-21T07:45:44;23.73;;;14.07;;
50219;SDS011;36110;51.536;7.562;2022-11-21T07:48:09;23.25;;;14.48;;
50219;SDS011;36110;51.536;7.562;2022-11-21T07:50:34;21.25;;;14.13;;
50219;SDS011;36110;51.536;7.562;2022-11-21T07:53:01;20.70;;;13.55;;
50219;SDS011;36110;51.536;7.562;2022-11-21T07:55:29;21.80;;;14.23;;
50219;SDS011;36110;51.536;7.562;2022-11-21T07:58:02;19.15;;;13.10;;
50219;SDS011;36110;51.536;7.562;2022-11-21T08:00:30;20.70;;;14.45;;
50219;SDS011;36110;51.536;7.562;2022-11-21T08:02:56;19.95;;;13.43;;
50219;SDS011;36110;51.536;7.562;2022-11-21T08:05:21;20.85;;;13.77;;
50219;SDS011;36110;51.536;7.562;2022-11-21T08:07:47;20.40;;;13.82;;
50219;SDS011;36110;51.536;7.562;2022-11-21T08:10:12;21.20;;;13.25;;
50219;SDS011;36110;51.536;7.562;2022-11-21T08:12:38;19.98;;;13.20;;
50219;SDS011;36110;51.536;7.562;2022-11-21T08:15:04;18.10;;;13.10;;
50219;SDS011;36110;51.536;7.562;2022-11-21T08:17:30;19.52;;;12.70;;
50219;SDS011;36110;51.536;7.562;2022-11-21T08:19:56;19.25;;;12.57;;
50219;SDS011;36110;51.536;7.562;2022-11-21T08:22:22;18.58;;;12.13;;
50219;SDS011;36110;51.536;7.562;2022-11-21T08:24:48;18.85;;;13.23;;
50219;SDS011;36110;51.536;7.562;2022-11-21T08:27:13;19.60;;;13.32;;
50219;SDS011;36110;51.536;7.562;2022-11-21T08:29:40;21.25;;;13.20;;
50219;SDS011;36110;51.536;7.562;2022-11-21T08:32:06;18.80;;;12.32;;
50219;SDS011;36110;51.536;7.562;2022-11-21T08:34:31;18.00;;;12.18;;
50219;SDS011;36110;51.536;7.562;2022-11-21T08:36:56;25.58;;;17.27;;
50219;SDS011;36110;51.536;7.562;2022-11-21T08:39:23;18.17;;;12.55;;
50219;SDS011;36110;51.536;7.562;2022-11-21T08:41:49;17.88;;;12.30;;
50219;SDS011;36110;51.536;7.562;2022-11-21T08:44:30;27.67;;;16.83;;
50219;SDS011;36110;51.536;7.562;2022-11-21T08:46:56;21.33;;;13.95;;
50219;SDS011;36110;51.536;7.562;2022-11-21T08:49:22;32.53;;;18.90;;
50219;SDS011;36110;51.536;7.562;2022-11-21T08:51:47;31.67;;;18.80;;
50219;SDS011;36110;51.536;7.562;2022-11-21T08:54:13;26.20;;;16.15;;
50219;SDS011;36110;51.536;7.562;2022-11-21T08:56:42;19.75;;;11.95;;
50219;SDS011;36110;51.536;7.562;2022-11-21T08:59:08;17.55;;;11.73;;
50219;SDS011;36110;51.536;7.562;2022-11-21T09:01:33;18.17;;;12.27;;
50219;SDS011;36110;51.536;7.562;2022-11-21T09:03:58;16.95;;;11.45;;
50219;SDS011;36110;51.536;7.562;2022-11-21T09:06:23;33.35;;;20.50;;
50219;SDS011;36110;51.536;7.562;2022-11-21T09:08:49;17.88;;;11.45;;
50219;SDS011;36110;51.536;7.562;2022-11-21T09:11:14;16.65;;;11.32;;
50219;SDS011;36110;51.536;7.562;2022-11-21T09:13:39;37.38;;;21.48;;
50219;SDS011;36110;51.536;7.562;2022-11-21T09:16:05;16.77;;;11.82;;
50219;SDS011;36110;51.536;7.562;2022-11-21T09:18:52;40.97;;;22.15;;
50219;SDS011;36110;51.536;7.562;2022-11-21T09:21:18;19.30;;;12.25;;
50219;SDS011;36110;51.536;7.562;2022-11-21T09:23:43;25.58;;;16.00;;
50219;SDS011;36110;51.536;7.562;2022-11-21T09:26:09;28.80;;;17.75;;
50219;SDS011;36110;51.536;7.562;2022-11-21T09:28:35;18.15;;;12.23;;
50219;SDS011;36110;51.536;7.562;2022-11-21T09:31:04;21.05;;;13.80;;
50219;SDS011;36110;51.536;7.562;2022-11-21T09:33:29;18.17;;;12.05;;
50219;SDS011;36110;51.536;7.562;2022-11-21T09:35:58;16.92;;;11.95;;
50219;SDS011;36110;51.536;7.562;2022-11-21T09:38:24;33.00;;;19.17;;
50219;SDS011;36110;51.536;7.562;2022-11-21T09:40:50;29.67;;;17.65;;
50219;SDS011;36110;51.536;7.562;2022-11-21T09:43:19;46.28;;;26.10;;
50219;SDS011;36110;51.536;7.562;2022-11-21T09:45:51;32.80;;;18.88;;
50219;SDS011;36110;51.536;7.562;2022-11-21T09:48:32;22.67;;;14.32;;
50219;SDS011;36110;51.536;7.562;2022-11-21T09:51:01;25.90;;;15.38;;
50219;SDS011;36110;51.536;7.562;2022-11-21T09:53:33;38.00;;;22.50;;
50219;SDS011;36110;51.536;7.562;2022-11-21T09:56:05;54.00;;;27.08;;
50219;SDS011;36110;51.536;7.562;2022-11-21T09:59:16;24.08;;;15.07;;
50219;SDS011;36110;51.536;7.562;2022-11-21T10:01:30;19.38;;;12.77;;
50219;SDS011;36110;51.536;7.562;2022-11-21T10:03:56;42.30;;;24.10;;
50219;SDS011;36110;51.536;7.562;2022-11-21T10:06:23;48.17;;;26.02;;
50219;SDS011;36110;51.536;7.562;2022-11-21T10:11:32;30.38;;;17.58;;
50219;SDS011;36110;51.536;7.562;2022-11-21T10:14:59;27.00;;;16.65;;
50219;SDS011;36110;51.536;7.562;2022-11-21T10:23:26;58.83;;;27.85;;
50219;SDS011;36110;51.536;7.562;2022-11-21T10:26:10;34.63;;;16.58;;
50219;SDS011;36110;51.536;7.562;2022-11-21T10:28:45;38.38;;;22.73;;
50219;SDS011;36110;51.536;7.562;2022-11-21T10:31:14;28.65;;;17.60;;
50219;SDS011;36110;51.536;7.562;2022-11-21T10:33:40;20.65;;;12.75;;
50219;SDS011;36110;51.536;7.562;2022-11-21T10:38:40;23.13;;;13.18;;
50219;SDS011;36110;51.536;7.562;2022-11-21T10:41:19;20.38;;;12.48;;
50219;SDS011;36110;51.536;7.562;2022-11-21T10:43:50;45.17;;;24.58;;
50219;SDS011;36110;51.536;7.562;2022-11-21T10:46:39;36.13;;;20.65;;
50219;SDS011;36110;51.536;7.562;2022-11-21T10:49:04;29.75;;;18.58;;
50219;SDS011;36110;51.536;7.562;2022-11-21T10:51:34;21.15;;;12.52;;
50219;SDS011;36110;51.536;7.562;2022-11-21T10:54:08;21.15;;;13.60;;
50219;SDS011;36110;51.536;7.562;2022-11-21T10:56:55;41.55;;;23.90;;
50219;SDS011;36110;51.536;7.562;2022-11-21T10:59:35;52.17;;;26.88;;
50219;SDS011;36110;51.536;7.562;2022-11-21T11:02:09;54.35;;;26.90;;
50219;SDS011;36110;51.536;7.562;2022-11-21T11:04:46;54.92;;;28.55;;
50219;SDS011;36110;51.536;7.562;2022-11-21T11:07:18;45.53;;;22.55;;
50219;SDS011;36110;51.536;7.562;2022-11-21T11:09:44;44.78;;;24.00;;
50219;SDS011;36110;51.536;7.562;2022-11-21T11:14:42;31.15;;;17.13;;
50219;SDS011;36110;51.536;7.562;2022-11-21T11:17:14;29.33;;;16.58;;
50219;SDS011;36110;51.536;7.562;2022-11-21T11:19:39;44.78;;;24.33;;
50219;SDS011;36110;51.536;7.562;2022-11-21T11:22:26;51.75;;;26.65;;
50219;SDS011;36110;51.536;7.562;2022-11-21T11:24:53;50.80;;;27.23;;
50219;SDS011;36110;51.536;7.562;2022-11-21T11:27:20;38.00;;;21.85;;
50219;SDS011;36110;51.536;7.562;2022-11-21T11:29:51;37.90;;;22.75;;
50219;SDS011;36110;51.536;7.562;2022-11-21T11:32:16;23.55;;;14.68;;
50219;SDS011;36110;51.536;7.562;2022-11-21T11:34:49;38.22;;;21.15;;
50219;SDS011;36110;51.536;7.562;2022-11-21T11:51:44;70.88;;;34.50;;
50219;SDS011;36110;51.536;7.562;2022-11-21T11:54:13;73.22;;;35.13;;
50219;SDS011;36110;51.536;7.562;2022-11-21T11:57:01;79.72;;;35.50;;
50219;SDS011;36110;51.536;7.562;2022-11-21T11:59:36;79.32;;;35.70;;
50219;SDS011;36110;51.536;7.562;2022-11-21T12:04:31;52.15;;;25.92;;
50219;SDS011;36110;51.536;7.562;2022-11-21T12:07:00;22.85;;;13.65;;
50219;SDS011;36110;51.536;7.562;2022-11-21T12:15:02;15.45;;;10.20;;
50219;SDS011;36110;51.536;7.562;2022-11-21T12:23:32;28.58;;;17.10;;
50219;SDS011;36110;51.536;7.562;2022-11-21T12:42:24;19.95;;;12.82;;
50219;SDS011;36110;51.536;7.562;2022-11-21T12:56:31;18.40;;;11.73;;
50219;SDS011;36110;51.536;7.562;2022-11-21T12:59:13;20.02;;;13.35;;
50219;SDS011;36110;51.536;7.562;2022-11-21T13:04:19;28.88;;;16.48;;
50219;SDS011;36110;51.536;7.562;2022-11-21T13:06:47;32.42;;;19.80;;
50219;SDS011;36110;51.536;7.562;2022-11-21T13:09:14;18.55;;;13.35;;
50219;SDS011;36110;51.536;7.562;2022-11-21T13:12:02;31.05;;;19.02;;
50219;SDS011;36110;51.536;7.562;2022-11-21T13:14:44;15.63;;;10.52;;
50219;SDS011;36110;51.536;7.562;2022-11-21T13:17:25;12.75;;;9.20;;
50219;SDS011;36110;51.536;7.562;2022-11-21T13:27:38;10.95;;;7.95;;
50219;SDS011;36110;51.536;7.562;2022-11-21T13:43:23;19.67;;;12.30;;
50219;SDS011;36110;51.536;7.562;2022-11-21T13:48:29;27.58;;;17.88;;
50219;SDS011;36110;51.536;7.562;2022-11-21T13:56:39;19.95;;;14.60;;
50219;SDS011;36110;51.536;7.562;2022-11-21T14:06:48;17.52;;;11.80;;
50219;SDS011;36110;51.536;7.562;2022-11-21T14:09:17;12.70;;;9.10;;
50219;SDS011;36110;51.536;7.562;2022-11-21T14:17:05;15.80;;;10.25;;
50219;SDS011;36110;51.536;7.562;2022-11-21T14:19:38;18.08;;;9.70;;
50219;SDS011;36110;51.536;7.562;2022-11-21T14:22:04;15.18;;;10.20;;
50219;SDS011;36110;51.536;7.562;2022-11-21T14:24:29;13.90;;;9.52;;
50219;SDS011;36110;51.536;7.562;2022-11-21T14:26:55;13.60;;;7.85;;
50219;SDS011;36110;51.536;7.562;2022-11-21T14:29:30;14.50;;;9.60;;
50219;SDS011;36110;51.536;7.562;2022-11-21T14:32:02;14.30;;;7.85;;
50219;SDS011;36110;51.536;7.562;2022-11-21T14:34:28;13.75;;;7.63;;
50219;SDS011;36110;51.536;7.562;2022-11-21T14:36:57;13.13;;;7.00;;
50219;SDS011;36110;51.536;7.562;2022-11-21T14:39:27;16.08;;;8.65;;
50219;SDS011;36110;51.536;7.562;2022-11-21T14:41:55;18.20;;;10.32;;
50219;SDS011;36110;51.536;7.562;2022-11-21T14:44:22;12.90;;;7.85;;
50219;SDS011;36110;51.536;7.562;2022-11-21T14:46:48;12.65;;;7.10;;
50219;SDS011;36110;51.536;7.562;2022-11-21T14:51:40;9.00;;;5.63;;
50219;SDS011;36110;51.536;7.562;2022-11-21T14:54:10;10.43;;;6.90;;
50219;SDS011;36110;51.536;7.562;2022-11-21T14:56:37;7.72;;;5.50;;
50219;SDS011;36110;51.536;7.562;2022-11-21T14:59:04;8.95;;;5.85;;
50219;SDS011;36110;51.536;7.562;2022-11-21T15:01:37;9.93;;;6.93;;
50219;SDS011;36110;51.536;7.562;2022-11-21T15:04:04;8.40;;;5.70;;
50219;SDS011;36110;51.536;7.562;2022-11-21T15:06:41;8.23;;;4.97;;
50219;SDS011;36110;51.536;7.562;2022-11-21T15:09:11;7.35;;;4.90;;
50219;SDS011;36110;51.536;7.562;2022-11-21T15:11:39;7.53;;;4.40;;
50219;SDS011;36110;51.536;7.562;2022-11-21T15:14:15;6.60;;;4.40;;
50219;SDS011;36110;51.536;7.562;2022-11-21T15:16:48;6.47;;;4.50;;
50219;SDS011;36110;51.536;7.562;2022-11-21T15:19:17;7.93;;;4.72;;
50219;SDS011;36110;51.536;7.562;2022-11-21T15:21:47;6.97;;;4.13;;
50219;SDS011;36110;51.536;7.562;2022-11-21T15:26:43;7.07;;;5.43;;
50219;SDS011;36110;51.536;7.562;2022-11-21T15:29:16;5.70;;;3.72;;
50219;SDS011;36110;51.536;7.562;2022-11-21T15:31:43;4.80;;;3.78;;
50219;SDS011;36110;51.536;7.562;2022-11-21T15:34:09;5.07;;;3.92;;
50219;SDS011;36110;51.536;7.562;2022-11-21T15:36:34;8.52;;;4.10;;
50219;SDS011;36110;51.536;7.562;2022-11-21T15:41:29;4.82;;;3.70;;
50219;SDS011;36110;51.536;7.562;2022-11-21T15:44:13;6.47;;;3.53;;
50219;SDS011;36110;51.536;7.562;2022-11-21T15:46:44;5.47;;;3.70;;
50219;SDS011;36110;51.536;7.562;2022-11-21T15:49:11;4.72;;;3.35;;
50219;SDS011;36110;51.536;7.562;2022-11-21T15:51:40;4.90;;;3.38;;
50219;SDS011;36110;51.536;7.562;2022-11-21T15:54:13;4.70;;;3.33;;
50219;SDS011;36110;51.536;7.562;2022-11-21T15:56:40;10.38;;;6.60;;
50219;SDS011;36110;51.536;7.562;2022-11-21T15:59:06;12.60;;;6.70;;
50219;SDS011;36110;51.536;7.562;2022-11-21T16:01:32;10.70;;;5.85;;
50219;SDS011;36110;51.536;7.562;2022-11-21T16:04:03;9.57;;;6.20;;
50219;SDS011;36110;51.536;7.562;2022-11-21T16:06:30;4.55;;;3.65;;
50219;SDS011;36110;51.536;7.562;2022-11-21T16:08:56;5.35;;;3.42;;
50219;SDS011;36110;51.536;7.562;2022-11-21T16:11:36;7.53;;;4.85;;
50219;SDS011;36110;51.536;7.562;2022-11-21T16:14:03;7.22;;;4.85;;
50219;SDS011;36110;51.536;7.562;2022-11-21T16:16:30;14.18;;;8.15;;
50219;SDS011;36110;51.536;7.562;2022-11-21T16:18:57;8.65;;;5.78;;
50219;SDS011;36110;51.536;7.562;2022-11-21T16:21:23;5.97;;;3.60;;
50219;SDS011;36110;51.536;7.562;2022-11-21T16:23:49;4.10;;;3.08;;
50219;SDS011;36110;51.536;7.562;2022-11-21T16:26:15;4.00;;;3.30;;
50219;SDS011;36110;51.536;7.562;2022-11-21T16:28:40;9.15;;;6.38;;
50219;SDS011;36110;51.536;7.562;2022-11-21T16:31:06;5.43;;;3.60;;
50219;SDS011;36110;51.536;7.562;2022-11-21T16:33:32;5.88;;;3.03;;
50219;SDS011;36110;51.536;7.562;2022-11-21T16:35:58;6.35;;;4.38;;
50219;SDS011;36110;51.536;7.562;2022-11-21T16:38:27;8.40;;;4.70;;
50219;SDS011;36110;51.536;7.562;2022-11-21T16:40:54;9.02;;;5.18;;
50219;SDS011;36110;51.536;7.562;2022-11-21T16:43:23;12.75;;;5.13;;
50219;SDS011;36110;51.536;7.562;2022-11-21T16:45:49;14.23;;;6.65;;
50219;SDS011;36110;51.536;7.562;2022-11-21T16:48:15;7.85;;;5.18;;
50219;SDS011;36110;51.536;7.562;2022-11-21T16:50:40;8.38;;;5.55;;
50219;SDS011;36110;51.536;7.562;2022-11-21T16:53:06;9.05;;;5.53;;